sensor_id;sensor_type;location;lat;lon;timestamp;temperature;humidity
46091;DHT22;31826;53.572;10.170;2023-05-09T00:00:41;12.00;88.10
46091;DHT22;31826;53.572;10.170;2023-05-09T00:03:07;12.00;88.10
46091;DHT22;31826;53.572;10.170;2023-05-09T00:05:33;11.90;88.30
46091;DHT22;31826;53.572;10.170;2023-05-09T00:07:59;11.90;88.70
46091;DHT22;31826;53.572;10.170;2023-05-09T00:10:26;11.80;89.00
46091;DHT22;31826;53.572;10.170;2023-05-09T00:12:52;11.70;89.30
46091;DHT22;31826;53.572;10.170;2023-05-09T00:15:17;11.70;89.60
46091;DHT22;31826;53.572;10.170;2023-05-09T00:17:44;11.60;90.00
46091;DHT22;31826;53.572;10.170;2023-05-09T00:20:10;11.60;90.00
46091;DHT22;31826;53.572;10.170;2023-05-09T00:22:38;11.60;90.10
46091;DHT22;31826;53.572;10.170;2023-05-09T00:25:06;11.50;90.20
46091;DHT22;31826;53.572;10.170;2023-05-09T00:27:32;11.50;90.30
46091;DHT22;31826;53.572;10.170;2023-05-09T00:29:58;11.40;90.40
46091;DHT22;31826;53.572;10.170;2023-05-09T00:32:23;11.40;90.50
46091;DHT22;31826;53.572;10.170;2023-05-09T00:34:50;11.30;90.50
46091;DHT22;31826;53.572;10.170;2023-05-09T00:37:16;11.30;90.70
46091;DHT22;31826;53.572;10.170;2023-05-09T00:39:44;11.30;90.80
46091;DHT22;31826;53.572;10.170;2023-05-09T00:42:10;11.20;90.80
46091;DHT22;31826;53.572;10.170;2023-05-09T00:44:36;11.20;91.00
46091;DHT22;31826;53.572;10.170;2023-05-09T00:47:02;11.20;91.10
46091;DHT22;31826;53.572;10.170;2023-05-09T00:49:28;11.10;91.10
46091;DHT22;31826;53.572;10.170;2023-05-09T00:51:54;11.10;91.10
46091;DHT22;31826;53.572;10.170;2023-05-09T00:54:20;11.10;91.20
46091;DHT22;31826;53.572;10.170;2023-05-09T00:56:46;11.00;91.20
46091;DHT22;31826;53.572;10.170;2023-05-09T00:59:12;11.00;91.30
46091;DHT22;31826;53.572;10.170;2023-05-09T01:01:37;11.00;91.40
46091;DHT22;31826;53.572;10.170;2023-05-09T01:04:03;10.90;91.30
46091;DHT22;31826;53.572;10.170;2023-05-09T01:11:43;10.90;91.60
46091;DHT22;31826;53.572;10.170;2023-05-09T01:22:27;10.70;91.90
46091;DHT22;31826;53.572;10.170;2023-05-09T01:28:13;10.60;92.20
46091;DHT22;31826;53.572;10.170;2023-05-09T01:30:44;10.60;92.40
46091;DHT22;31826;53.572;10.170;2023-05-09T01:33:12;10.50;92.40
46091;DHT22;31826;53.572;10.170;2023-05-09T01:35:41;10.50;92.60
46091;DHT22;31826;53.572;10.170;2023-05-09T01:38:14;10.40;92.80
46091;DHT22;31826;53.572;10.170;2023-05-09T01:40:42;10.40;92.90
46091;DHT22;31826;53.572;10.170;2023-05-09T01:43:10;10.40;92.90
46091;DHT22;31826;53.572;10.170;2023-05-09T01:45:38;10.30;93.10
46091;DHT22;31826;53.572;10.170;2023-05-09T01:48:06;10.30;93.10
46091;DHT22;31826;53.572;10.170;2023-05-09T01:50:34;10.30;93.20
46091;DHT22;31826;53.572;10.170;2023-05-09T01:53:00;10.20;93.40
46091;DHT22;31826;53.572;10.170;2023-05-09T01:55:31;10.20;93.50
46091;DHT22;31826;53.572;10.170;2023-05-09T01:57:58;10.20;93.50
46091;DHT22;31826;53.572;10.170;2023-05-09T02:00:26;10.10;93.60
46091;DHT22;31826;53.572;10.170;2023-05-09T02:02:52;10.10;93.70
46091;DHT22;31826;53.572;10.170;2023-05-09T02:05:19;10.10;93.90
46091;DHT22;31826;53.572;10.170;2023-05-09T02:07:46;10.00;93.90
46091;DHT22;31826;53.572;10.170;2023-05-09T02:10:14;10.00;94.10
46091;DHT22;31826;53.572;10.170;2023-05-09T02:12:40;10.00;94.10
46091;DHT22;31826;53.572;10.170;2023-05-09T02:15:06;10.00;94.30
46091;DHT22;31826;53.572;10.170;2023-05-09T02:17:33;9.90;94.40
46091;DHT22;31826;53.572;10.170;2023-05-09T02:19:59;9.90;94.60
46091;DHT22;31826;53.572;10.170;2023-05-09T02:22:25;9.90;94.60
46091;DHT22;31826;53.572;10.170;2023-05-09T02:24:51;9.80;94.60
46091;DHT22;31826;53.572;10.170;2023-05-09T02:27:17;9.80;94.80
46091;DHT22;31826;53.572;10.170;2023-05-09T02:29:47;9.70;94.90
46091;DHT22;31826;53.572;10.170;2023-05-09T02:32:16;9.70;95.00
46091;DHT22;31826;53.572;10.170;2023-05-09T02:34:43;9.70;95.10
46091;DHT22;31826;53.572;10.170;2023-05-09T02:37:10;9.60;95.30
46091;DHT22;31826;53.572;10.170;2023-05-09T02:39:37;9.70;95.40
46091;DHT22;31826;53.572;10.170;2023-05-09T02:42:06;9.60;95.40
46091;DHT22;31826;53.572;10.170;2023-05-09T02:44:32;9.60;95.60
46091;DHT22;31826;53.572;10.170;2023-05-09T02:46:58;9.60;95.60
46091;DHT22;31826;53.572;10.170;2023-05-09T02:49:23;9.70;95.80
46091;DHT22;31826;53.572;10.170;2023-05-09T02:51:49;9.60;95.80
46091;DHT22;31826;53.572;10.170;2023-05-09T02:54:15;9.60;96.00
46091;DHT22;31826;53.572;10.170;2023-05-09T02:56:40;9.70;96.20
46091;DHT22;31826;53.572;10.170;2023-05-09T02:59:06;9.50;96.20
46091;DHT22;31826;53.572;10.170;2023-05-09T03:01:32;9.50;96.30
46091;DHT22;31826;53.572;10.170;2023-05-09T03:03:57;9.40;96.50
46091;DHT22;31826;53.572;10.170;2023-05-09T03:06:23;9.50;96.60
46091;DHT22;31826;53.572;10.170;2023-05-09T03:08:49;9.40;96.70
46091;DHT22;31826;53.572;10.170;2023-05-09T03:11:14;9.30;97.00
46091;DHT22;31826;53.572;10.170;2023-05-09T03:13:40;9.40;97.10
46091;DHT22;31826;53.572;10.170;2023-05-09T03:16:06;9.30;97.20
46091;DHT22;31826;53.572;10.170;2023-05-09T03:18:31;9.30;97.40
46091;DHT22;31826;53.572;10.170;2023-05-09T03:20:57;9.30;97.60
46091;DHT22;31826;53.572;10.170;2023-05-09T03:23:23;9.20;97.80
46091;DHT22;31826;53.572;10.170;2023-05-09T03:25:48;9.20;97.90
46091;DHT22;31826;53.572;10.170;2023-05-09T03:28:14;9.10;98.10
46091;DHT22;31826;53.572;10.170;2023-05-09T03:30:40;9.00;98.30
46091;DHT22;31826;53.572;10.170;2023-05-09T03:33:06;9.10;98.50
46091;DHT22;31826;53.572;10.170;2023-05-09T03:35:32;9.00;98.70
46091;DHT22;31826;53.572;10.170;2023-05-09T03:37:57;9.00;98.90
46091;DHT22;31826;53.572;10.170;2023-05-09T03:40:23;9.00;99.00
46091;DHT22;31826;53.572;10.170;2023-05-09T03:42:49;9.00;99.20
46091;DHT22;31826;53.572;10.170;2023-05-09T03:45:14;8.90;99.40
46091;DHT22;31826;53.572;10.170;2023-05-09T03:47:40;8.90;99.60
46091;DHT22;31826;53.572;10.170;2023-05-09T03:50:06;8.80;99.80
46091;DHT22;31826;53.572;10.170;2023-05-09T03:52:32;8.80;99.90
46091;DHT22;31826;53.572;10.170;2023-05-09T03:54:58;8.80;99.90
46091;DHT22;31826;53.572;10.170;2023-05-09T03:57:23;8.80;99.90
46091;DHT22;31826;53.572;10.170;2023-05-09T03:59:49;8.80;99.90
46091;DHT22;31826;53.572;10.170;2023-05-09T04:02:15;8.80;99.90
46091;DHT22;31826;53.572;10.170;2023-05-09T04:04:41;8.80;99.90
46091;DHT22;31826;53.572;10.170;2023-05-09T04:07:07;8.80;99.90
46091;DHT22;31826;53.572;10.170;2023-05-09T04:09:33;8.80;99.90
46091;DHT22;31826;53.572;10.170;2023-05-09T04:11:58;8.80;99.90
46091;DHT22;31826;53.572;10.170;2023-05-09T04:14:24;8.80;99.90
46091;DHT22;31826;53.572;10.170;2023-05-09T04:16:50;8.80;99.90
46091;DHT22;31826;53.572;10.170;2023-05-09T04:19:15;8.70;99.90
46091;DHT22;31826;53.572;10.170;2023-05-09T04:21:41;8.80;99.90
46091;DHT22;31826;53.572;10.170;2023-05-09T04:24:07;8.80;99.90
46091;DHT22;31826;53.572;10.170;2023-05-09T04:26:32;8.80;99.90
46091;DHT22;31826;53.572;10.170;2023-05-09T04:29:02;8.80;99.90
46091;DHT22;31826;53.572;10.170;2023-05-09T04:31:28;8.80;99.90
46091;DHT22;31826;53.572;10.170;2023-05-09T04:33:54;8.90;99.90
46091;DHT22;31826;53.572;10.170;2023-05-09T04:36:22;8.90;99.90
46091;DHT22;31826;53.572;10.170;2023-05-09T04:38:48;8.90;99.90
46091;DHT22;31826;53.572;10.170;2023-05-09T04:41:14;8.90;99.90
46091;DHT22;31826;53.572;10.170;2023-05-09T04:43:39;8.90;99.90
46091;DHT22;31826;53.572;10.170;2023-05-09T04:46:05;9.00;99.90
46091;DHT22;31826;53.572;10.170;2023-05-09T04:48:32;9.00;99.90
46091;DHT22;31826;53.572;10.170;2023-05-09T04:50:58;9.00;99.90
46091;DHT22;31826;53.572;10.170;2023-05-09T04:53:24;9.10;99.90
46091;DHT22;31826;53.572;10.170;2023-05-09T04:55:51;9.20;99.90
46091;DHT22;31826;53.572;10.170;2023-05-09T04:58:17;9.30;99.90
46091;DHT22;31826;53.572;10.170;2023-05-09T05:00:43;9.30;99.90
46091;DHT22;31826;53.572;10.170;2023-05-09T05:03:09;9.30;99.90
46091;DHT22;31826;53.572;10.170;2023-05-09T05:05:34;9.30;99.90
46091;DHT22;31826;53.572;10.170;2023-05-09T05:08:00;9.40;99.90
46091;DHT22;31826;53.572;10.170;2023-05-09T05:10:26;9.40;99.90
46091;DHT22;31826;53.572;10.170;2023-05-09T05:12:51;9.40;99.90
46091;DHT22;31826;53.572;10.170;2023-05-09T05:15:17;9.40;99.90
46091;DHT22;31826;53.572;10.170;2023-05-09T05:17:44;9.60;99.90
46091;DHT22;31826;53.572;10.170;2023-05-09T05:20:10;9.50;99.90
46091;DHT22;31826;53.572;10.170;2023-05-09T05:22:35;9.60;99.90
46091;DHT22;31826;53.572;10.170;2023-05-09T05:25:01;9.70;99.90
46091;DHT22;31826;53.572;10.170;2023-05-09T05:27:30;9.80;99.90
46091;DHT22;31826;53.572;10.170;2023-05-09T05:29:55;9.80;99.90
46091;DHT22;31826;53.572;10.170;2023-05-09T05:32:21;9.90;99.90
46091;DHT22;31826;53.572;10.170;2023-05-09T05:34:47;9.90;99.90
46091;DHT22;31826;53.572;10.170;2023-05-09T05:37:12;10.00;99.90
46091;DHT22;31826;53.572;10.170;2023-05-09T05:39:38;10.10;99.90
46091;DHT22;31826;53.572;10.170;2023-05-09T05:42:04;10.10;99.90
46091;DHT22;31826;53.572;10.170;2023-05-09T05:44:29;10.10;99.90
46091;DHT22;31826;53.572;10.170;2023-05-09T05:46:55;10.20;99.90
46091;DHT22;31826;53.572;10.170;2023-05-09T05:49:21;10.20;99.90
46091;DHT22;31826;53.572;10.170;2023-05-09T05:51:46;10.30;99.90
46091;DHT22;31826;53.572;10.170;2023-05-09T05:54:12;10.30;99.90
46091;DHT22;31826;53.572;10.170;2023-05-09T05:56:37;10.50;99.90
46091;DHT22;31826;53.572;10.170;2023-05-09T05:59:03;10.70;99.80
46091;DHT22;31826;53.572;10.170;2023-05-09T06:01:29;10.60;99.40
46091;DHT22;31826;53.572;10.170;2023-05-09T06:03:54;10.60;99.30
46091;DHT22;31826;53.572;10.170;2023-05-09T06:06:24;10.80;99.60
46091;DHT22;31826;53.572;10.170;2023-05-09T06:08:50;10.90;99.10
46091;DHT22;31826;53.572;10.170;2023-05-09T06:11:16;11.00;99.30
46091;DHT22;31826;53.572;10.170;2023-05-09T06:13:42;11.10;99.00
46091;DHT22;31826;53.572;10.170;2023-05-09T06:16:08;11.20;99.10
46091;DHT22;31826;53.572;10.170;2023-05-09T06:18:36;11.10;98.50
46091;DHT22;31826;53.572;10.170;2023-05-09T06:21:07;11.20;98.70
46091;DHT22;31826;53.572;10.170;2023-05-09T06:23:33;11.40;98.50
46091;DHT22;31826;53.572;10.170;2023-05-09T06:26:01;11.40;98.20
46091;DHT22;31826;53.572;10.170;2023-05-09T06:28:27;11.40;98.30
46091;DHT22;31826;53.572;10.170;2023-05-09T06:30:53;11.50;98.00
46091;DHT22;31826;53.572;10.170;2023-05-09T06:33:18;11.60;98.30
46091;DHT22;31826;53.572;10.170;2023-05-09T06:35:44;11.60;97.90
46091;DHT22;31826;53.572;10.170;2023-05-09T06:38:10;11.70;97.90
46091;DHT22;31826;53.572;10.170;2023-05-09T06:40:35;11.80;98.20
46091;DHT22;31826;53.572;10.170;2023-05-09T06:43:01;12.00;97.90
46091;DHT22;31826;53.572;10.170;2023-05-09T06:45:27;12.10;97.60
46091;DHT22;31826;53.572;10.170;2023-05-09T06:47:52;12.30;97.40
46091;DHT22;31826;53.572;10.170;2023-05-09T06:50:18;12.30;97.20
46091;DHT22;31826;53.572;10.170;2023-05-09T06:52:44;12.40;97.20
46091;DHT22;31826;53.572;10.170;2023-05-09T06:55:09;12.40;96.80
46091;DHT22;31826;53.572;10.170;2023-05-09T06:57:35;12.40;96.80
46091;DHT22;31826;53.572;10.170;2023-05-09T07:00:02;12.40;96.80
46091;DHT22;31826;53.572;10.170;2023-05-09T07:02:29;12.40;96.70
46091;DHT22;31826;53.572;10.170;2023-05-09T07:04:55;12.60;97.00
46091;DHT22;31826;53.572;10.170;2023-05-09T07:07:20;12.70;96.60
46091;DHT22;31826;53.572;10.170;2023-05-09T07:09:46;12.90;97.00
46091;DHT22;31826;53.572;10.170;2023-05-09T07:12:12;13.20;96.20
46091;DHT22;31826;53.572;10.170;2023-05-09T07:14:37;13.10;95.90
46091;DHT22;31826;53.572;10.170;2023-05-09T07:17:03;13.20;96.00
46091;DHT22;31826;53.572;10.170;2023-05-09T07:19:29;13.20;95.90
46091;DHT22;31826;53.572;10.170;2023-05-09T07:21:55;13.30;95.90
46091;DHT22;31826;53.572;10.170;2023-05-09T07:24:20;13.50;96.00
46091;DHT22;31826;53.572;10.170;2023-05-09T07:26:46;13.60;95.20
46091;DHT22;31826;53.572;10.170;2023-05-09T07:29:12;13.50;95.30
46091;DHT22;31826;53.572;10.170;2023-05-09T07:31:37;13.80;95.30
46091;DHT22;31826;53.572;10.170;2023-05-09T07:34:03;14.00;95.20
46091;DHT22;31826;53.572;10.170;2023-05-09T07:36:29;14.00;94.80
46091;DHT22;31826;53.572;10.170;2023-05-09T07:38:54;14.10;95.40
46091;DHT22;31826;53.572;10.170;2023-05-09T07:41:20;14.30;94.90
46091;DHT22;31826;53.572;10.170;2023-05-09T07:43:46;14.60;94.90
46091;DHT22;31826;53.572;10.170;2023-05-09T07:46:12;14.70;94.40
46091;DHT22;31826;53.572;10.170;2023-05-09T07:48:38;14.80;93.90
46091;DHT22;31826;53.572;10.170;2023-05-09T07:51:03;14.70;93.70
46091;DHT22;31826;53.572;10.170;2023-05-09T07:53:29;14.70;93.60
46091;DHT22;31826;53.572;10.170;2023-05-09T07:55:55;14.90;93.60
46091;DHT22;31826;53.572;10.170;2023-05-09T07:58:22;15.10;93.40
46091;DHT22;31826;53.572;10.170;2023-05-09T08:00:48;15.20;93.40
46091;DHT22;31826;53.572;10.170;2023-05-09T08:03:14;15.10;92.90
46091;DHT22;31826;53.572;10.170;2023-05-09T08:05:39;15.20;93.10
46091;DHT22;31826;53.572;10.170;2023-05-09T08:08:05;15.30;92.80
46091;DHT22;31826;53.572;10.170;2023-05-09T08:10:32;15.50;93.10
46091;DHT22;31826;53.572;10.170;2023-05-09T08:12:58;15.70;92.50
46091;DHT22;31826;53.572;10.170;2023-05-09T08:15:23;15.90;92.50
46091;DHT22;31826;53.572;10.170;2023-05-09T08:17:49;15.80;92.10
46091;DHT22;31826;53.572;10.170;2023-05-09T08:20:15;16.00;92.60
46091;DHT22;31826;53.572;10.170;2023-05-09T08:22:41;16.10;91.80
46091;DHT22;31826;53.572;10.170;2023-05-09T08:25:07;16.30;92.60
46091;DHT22;31826;53.572;10.170;2023-05-09T08:27:33;16.30;92.10
46091;DHT22;31826;53.572;10.170;2023-05-09T08:29:59;16.40;92.00
46091;DHT22;31826;53.572;10.170;2023-05-09T08:32:25;16.50;91.40
46091;DHT22;31826;53.572;10.170;2023-05-09T08:34:50;16.60;91.10
46091;DHT22;31826;53.572;10.170;2023-05-09T08:37:16;16.60;91.10
46091;DHT22;31826;53.572;10.170;2023-05-09T08:39:42;16.80;90.60
46091;DHT22;31826;53.572;10.170;2023-05-09T08:42:08;17.00;91.20
46091;DHT22;31826;53.572;10.170;2023-05-09T08:44:35;17.20;90.50
46091;DHT22;31826;53.572;10.170;2023-05-09T08:47:02;17.00;89.90
46091;DHT22;31826;53.572;10.170;2023-05-09T08:49:28;17.40;90.70
46091;DHT22;31826;53.572;10.170;2023-05-09T08:51:54;17.40;90.00
46091;DHT22;31826;53.572;10.170;2023-05-09T08:54:21;17.70;90.20
46091;DHT22;31826;53.572;10.170;2023-05-09T08:56:47;17.90;88.90
46091;DHT22;31826;53.572;10.170;2023-05-09T08:59:14;17.90;88.30
46091;DHT22;31826;53.572;10.170;2023-05-09T09:01:41;17.90;87.90
46091;DHT22;31826;53.572;10.170;2023-05-09T09:04:08;18.00;87.30
46091;DHT22;31826;53.572;10.170;2023-05-09T09:06:36;18.00;88.00
46091;DHT22;31826;53.572;10.170;2023-05-09T09:09:05;18.10;87.70
46091;DHT22;31826;53.572;10.170;2023-05-09T09:11:32;18.40;87.10
46091;DHT22;31826;53.572;10.170;2023-05-09T09:14:01;18.40;87.10
46091;DHT22;31826;53.572;10.170;2023-05-09T09:16:31;18.40;86.20
46091;DHT22;31826;53.572;10.170;2023-05-09T09:18:57;18.70;84.90
46091;DHT22;31826;53.572;10.170;2023-05-09T09:21:24;18.60;84.10
46091;DHT22;31826;53.572;10.170;2023-05-09T09:23:51;18.70;85.90
46091;DHT22;31826;53.572;10.170;2023-05-09T09:26:19;18.80;84.50
46091;DHT22;31826;53.572;10.170;2023-05-09T09:28:46;19.00;85.80
46091;DHT22;31826;53.572;10.170;2023-05-09T09:31:22;19.00;83.60
46091;DHT22;31826;53.572;10.170;2023-05-09T09:33:48;18.90;83.30
46091;DHT22;31826;53.572;10.170;2023-05-09T09:36:14;19.10;83.50
46091;DHT22;31826;53.572;10.170;2023-05-09T09:38:41;19.20;82.40
46091;DHT22;31826;53.572;10.170;2023-05-09T09:41:08;19.10;82.30
46091;DHT22;31826;53.572;10.170;2023-05-09T09:43:35;19.30;83.50
46091;DHT22;31826;53.572;10.170;2023-05-09T09:46:02;19.70;82.40
46091;DHT22;31826;53.572;10.170;2023-05-09T09:48:33;20.10;81.90
46091;DHT22;31826;53.572;10.170;2023-05-09T09:51:09;19.80;79.50
46091;DHT22;31826;53.572;10.170;2023-05-09T09:53:39;19.90;79.80
46091;DHT22;31826;53.572;10.170;2023-05-09T09:56:05;19.80;78.40
46091;DHT22;31826;53.572;10.170;2023-05-09T09:58:31;19.50;78.60
46091;DHT22;31826;53.572;10.170;2023-05-09T10:01:04;19.80;78.90
46091;DHT22;31826;53.572;10.170;2023-05-09T10:03:44;20.00;79.80
46091;DHT22;31826;53.572;10.170;2023-05-09T10:06:12;20.20;78.00
46091;DHT22;31826;53.572;10.170;2023-05-09T10:08:39;20.50;79.30
46091;DHT22;31826;53.572;10.170;2023-05-09T10:11:05;20.60;79.30
46091;DHT22;31826;53.572;10.170;2023-05-09T10:13:34;20.70;77.50
46091;DHT22;31826;53.572;10.170;2023-05-09T10:16:01;20.70;77.00
46091;DHT22;31826;53.572;10.170;2023-05-09T10:18:29;20.90;75.90
46091;DHT22;31826;53.572;10.170;2023-05-09T10:20:58;20.80;75.10
46091;DHT22;31826;53.572;10.170;2023-05-09T10:23:28;20.90;76.30
46091;DHT22;31826;53.572;10.170;2023-05-09T10:26:15;20.90;75.00
46091;DHT22;31826;53.572;10.170;2023-05-09T10:28:44;20.70;74.60
46091;DHT22;31826;53.572;10.170;2023-05-09T10:31:24;20.80;75.20
46091;DHT22;31826;53.572;10.170;2023-05-09T10:33:51;20.90;75.90
46091;DHT22;31826;53.572;10.170;2023-05-09T10:36:19;21.30;74.40
46091;DHT22;31826;53.572;10.170;2023-05-09T10:38:53;21.30;75.30
46091;DHT22;31826;53.572;10.170;2023-05-09T10:41:20;21.20;72.30
46091;DHT22;31826;53.572;10.170;2023-05-09T10:43:50;21.40;76.30
46091;DHT22;31826;53.572;10.170;2023-05-09T10:46:16;21.60;72.70
46091;DHT22;31826;53.572;10.170;2023-05-09T10:48:44;21.80;72.60
46091;DHT22;31826;53.572;10.170;2023-05-09T10:51:11;21.60;71.10
46091;DHT22;31826;53.572;10.170;2023-05-09T10:56:32;21.50;72.30
46091;DHT22;31826;53.572;10.170;2023-05-09T10:59:00;21.50;71.00
46091;DHT22;31826;53.572;10.170;2023-05-09T11:01:32;21.80;70.90
46091;DHT22;31826;53.572;10.170;2023-05-09T11:04:00;21.90;72.50
46091;DHT22;31826;53.572;10.170;2023-05-09T11:06:42;21.80;72.00
46091;DHT22;31826;53.572;10.170;2023-05-09T11:09:34;22.20;73.00
46091;DHT22;31826;53.572;10.170;2023-05-09T11:12:08;21.80;69.60
46091;DHT22;31826;53.572;10.170;2023-05-09T11:14:44;21.70;70.00
46091;DHT22;31826;53.572;10.170;2023-05-09T11:17:13;21.50;69.30
46091;DHT22;31826;53.572;10.170;2023-05-09T11:24:50;21.90;67.30
46091;DHT22;31826;53.572;10.170;2023-05-09T11:27:20;21.60;66.80
46091;DHT22;31826;53.572;10.170;2023-05-09T11:29:55;21.60;67.50
46091;DHT22;31826;53.572;10.170;2023-05-09T11:32:31;22.20;69.60
46091;DHT22;31826;53.572;10.170;2023-05-09T11:35:11;22.00;68.10
46091;DHT22;31826;53.572;10.170;2023-05-09T11:40:13;21.80;67.70
46091;DHT22;31826;53.572;10.170;2023-05-09T11:42:44;22.00;67.90
46091;DHT22;31826;53.572;10.170;2023-05-09T11:45:11;22.30;70.30
46091;DHT22;31826;53.572;10.170;2023-05-09T11:47:37;22.50;68.30
46091;DHT22;31826;53.572;10.170;2023-05-09T11:50:11;22.20;66.90
46091;DHT22;31826;53.572;10.170;2023-05-09T11:52:37;22.40;68.30
46091;DHT22;31826;53.572;10.170;2023-05-09T11:55:07;22.50;66.20
46091;DHT22;31826;53.572;10.170;2023-05-09T11:57:34;22.40;66.30
46091;DHT22;31826;53.572;10.170;2023-05-09T12:00:00;22.40;66.30
46091;DHT22;31826;53.572;10.170;2023-05-09T12:02:29;22.40;65.60
46091;DHT22;31826;53.572;10.170;2023-05-09T12:04:55;22.20;65.50
46091;DHT22;31826;53.572;10.170;2023-05-09T12:07:20;22.10;65.40
46091;DHT22;31826;53.572;10.170;2023-05-09T12:09:48;21.70;66.80
46091;DHT22;31826;53.572;10.170;2023-05-09T12:12:14;22.20;66.80
46091;DHT22;31826;53.572;10.170;2023-05-09T12:14:42;22.50;67.10
46091;DHT22;31826;53.572;10.170;2023-05-09T12:17:08;22.30;65.60
46091;DHT22;31826;53.572;10.170;2023-05-09T12:19:34;22.30;67.30
46091;DHT22;31826;53.572;10.170;2023-05-09T12:22:02;22.30;67.50
46091;DHT22;31826;53.572;10.170;2023-05-09T12:24:30;22.40;67.60
46091;DHT22;31826;53.572;10.170;2023-05-09T12:26:56;22.40;66.70
46091;DHT22;31826;53.572;10.170;2023-05-09T12:29:23;22.70;66.70
46091;DHT22;31826;53.572;10.170;2023-05-09T12:31:49;22.60;67.30
46091;DHT22;31826;53.572;10.170;2023-05-09T12:34:16;22.80;66.20
46091;DHT22;31826;53.572;10.170;2023-05-09T12:36:45;22.80;65.40
46091;DHT22;31826;53.572;10.170;2023-05-09T12:39:19;22.90;67.20
46091;DHT22;31826;53.572;10.170;2023-05-09T12:41:48;22.60;65.80
46091;DHT22;31826;53.572;10.170;2023-05-09T12:44:21;22.00;65.80
46091;DHT22;31826;53.572;10.170;2023-05-09T12:46:58;22.10;67.30
46091;DHT22;31826;53.572;10.170;2023-05-09T12:49:24;22.00;66.70
46091;DHT22;31826;53.572;10.170;2023-05-09T12:51:51;22.00;67.50
46091;DHT22;31826;53.572;10.170;2023-05-09T12:54:26;21.80;66.50
46091;DHT22;31826;53.572;10.170;2023-05-09T12:56:56;22.20;68.90
46091;DHT22;31826;53.572;10.170;2023-05-09T12:59:27;22.30;67.10
46091;DHT22;31826;53.572;10.170;2023-05-09T13:01:55;22.30;65.90
46091;DHT22;31826;53.572;10.170;2023-05-09T13:04:22;22.30;67.60
46091;DHT22;31826;53.572;10.170;2023-05-09T13:06:52;22.50;66.10
46091;DHT22;31826;53.572;10.170;2023-05-09T13:09:20;22.70;67.70
46091;DHT22;31826;53.572;10.170;2023-05-09T13:11:46;22.60;66.20
46091;DHT22;31826;53.572;10.170;2023-05-09T13:14:13;22.50;65.50
46091;DHT22;31826;53.572;10.170;2023-05-09T13:16:39;22.40;65.80
46091;DHT22;31826;53.572;10.170;2023-05-09T13:19:05;22.60;66.20
46091;DHT22;31826;53.572;10.170;2023-05-09T13:21:32;22.40;64.70
46091;DHT22;31826;53.572;10.170;2023-05-09T13:23:58;22.80;66.60
46091;DHT22;31826;53.572;10.170;2023-05-09T13:26:23;22.70;65.30
46091;DHT22;31826;53.572;10.170;2023-05-09T13:28:49;22.70;64.60
46091;DHT22;31826;53.572;10.170;2023-05-09T13:31:16;22.70;65.60
46091;DHT22;31826;53.572;10.170;2023-05-09T13:33:41;22.70;65.30
46091;DHT22;31826;53.572;10.170;2023-05-09T13:36:07;22.90;67.00
46091;DHT22;31826;53.572;10.170;2023-05-09T13:38:34;22.60;65.70
46091;DHT22;31826;53.572;10.170;2023-05-09T13:41:01;22.80;66.20
46091;DHT22;31826;53.572;10.170;2023-05-09T13:43:26;23.20;66.00
46091;DHT22;31826;53.572;10.170;2023-05-09T13:45:52;23.20;64.60
46091;DHT22;31826;53.572;10.170;2023-05-09T13:48:18;23.20;65.20
46091;DHT22;31826;53.572;10.170;2023-05-09T13:50:44;23.10;65.10
46091;DHT22;31826;53.572;10.170;2023-05-09T13:53:10;22.70;64.70
46091;DHT22;31826;53.572;10.170;2023-05-09T13:55:35;22.80;64.40
46091;DHT22;31826;53.572;10.170;2023-05-09T13:58:01;22.80;63.60
46091;DHT22;31826;53.572;10.170;2023-05-09T14:00:27;22.30;63.70
46091;DHT22;31826;53.572;10.170;2023-05-09T14:02:53;22.50;66.10
46091;DHT22;31826;53.572;10.170;2023-05-09T14:05:19;22.50;64.50
46091;DHT22;31826;53.572;10.170;2023-05-09T14:07:44;22.40;64.80
46091;DHT22;31826;53.572;10.170;2023-05-09T14:10:11;22.20;65.60
46091;DHT22;31826;53.572;10.170;2023-05-09T14:12:40;22.10;65.70
46091;DHT22;31826;53.572;10.170;2023-05-09T14:15:08;21.80;65.20
46091;DHT22;31826;53.572;10.170;2023-05-09T14:17:35;21.80;66.60
46091;DHT22;31826;53.572;10.170;2023-05-09T14:20:01;21.70;65.80
46091;DHT22;31826;53.572;10.170;2023-05-09T14:22:26;22.10;66.20
46091;DHT22;31826;53.572;10.170;2023-05-09T14:24:52;22.10;66.30
46091;DHT22;31826;53.572;10.170;2023-05-09T14:27:18;21.90;67.00
46091;DHT22;31826;53.572;10.170;2023-05-09T14:29:44;21.80;65.90
46091;DHT22;31826;53.572;10.170;2023-05-09T14:32:10;21.50;65.70
46091;DHT22;31826;53.572;10.170;2023-05-09T14:34:39;21.70;65.70
46091;DHT22;31826;53.572;10.170;2023-05-09T14:37:04;22.00;65.60
46091;DHT22;31826;53.572;10.170;2023-05-09T14:39:40;21.80;64.90
46091;DHT22;31826;53.572;10.170;2023-05-09T14:42:07;21.70;65.40
46091;DHT22;31826;53.572;10.170;2023-05-09T14:44:39;21.90;65.60
46091;DHT22;31826;53.572;10.170;2023-05-09T14:47:06;22.00;66.50
46091;DHT22;31826;53.572;10.170;2023-05-09T14:49:32;22.10;66.10
46091;DHT22;31826;53.572;10.170;2023-05-09T14:51:58;22.20;64.90
46091;DHT22;31826;53.572;10.170;2023-05-09T14:54:24;22.30;65.50
46091;DHT22;31826;53.572;10.170;2023-05-09T14:56:50;22.10;63.40
46091;DHT22;31826;53.572;10.170;2023-05-09T14:59:16;22.30;66.60
46091;DHT22;31826;53.572;10.170;2023-05-09T15:01:41;22.30;64.30
46091;DHT22;31826;53.572;10.170;2023-05-09T15:04:07;21.90;63.60
46091;DHT22;31826;53.572;10.170;2023-05-09T15:06:34;21.60;63.40
46091;DHT22;31826;53.572;10.170;2023-05-09T15:09:00;21.80;64.00
46091;DHT22;31826;53.572;10.170;2023-05-09T15:11:25;21.70;64.50
46091;DHT22;31826;53.572;10.170;2023-05-09T15:13:52;21.90;64.40
46091;DHT22;31826;53.572;10.170;2023-05-09T15:16:18;22.00;64.10
46091;DHT22;31826;53.572;10.170;2023-05-09T15:18:44;22.30;63.10
46091;DHT22;31826;53.572;10.170;2023-05-09T15:21:13;22.20;63.10
46091;DHT22;31826;53.572;10.170;2023-05-09T15:23:39;22.20;62.70
46091;DHT22;31826;53.572;10.170;2023-05-09T15:26:06;22.20;61.80
46091;DHT22;31826;53.572;10.170;2023-05-09T15:28:38;21.70;63.10
46091;DHT22;31826;53.572;10.170;2023-05-09T15:31:04;21.60;62.30
46091;DHT22;31826;53.572;10.170;2023-05-09T15:33:30;21.40;62.70
46091;DHT22;31826;53.572;10.170;2023-05-09T15:35:58;21.50;64.20
46091;DHT22;31826;53.572;10.170;2023-05-09T15:38:27;21.70;62.40
46091;DHT22;31826;53.572;10.170;2023-05-09T15:40:54;21.60;62.90
46091;DHT22;31826;53.572;10.170;2023-05-09T15:43:19;21.60;63.20
46091;DHT22;31826;53.572;10.170;2023-05-09T15:45:45;21.70;62.50